N399JT KASN-KPNS
Flight info
| Callsign | N399JT |
|---|---|
| Flight time | 1h 36m |
| Altitude | 4000 |
| Route | MGM V115 CEW |
| Aircraft | C172/L-SFG/C |
Departure
| Time | 2026-04-26 15:11 |
|---|---|
| Airport | Talladega Municipal Airport (KASN) |
Arrival
| Time | 2026-04-26 16:48 |
|---|---|
| Airport | Pensacola International Airport (KPNS) |
| Time | Latitude | Longitude | Altitude | Speed | Heading |
|---|---|---|---|---|---|
| 2026-04-26 14:55 | 33.57168 | -86.05241 | 522 ft | 0 kts | 124° |
| 2026-04-26 15:05 | 33.57153 | -86.05235 | 522 ft | 3 kts | 175° |
| 2026-04-26 15:05 | 33.57122 | -86.05224 | 522 ft | 5 kts | 142° |
| 2026-04-26 15:06 | 33.57099 | -86.05190 | 522 ft | 5 kts | 126° |
| 2026-04-26 15:06 | 33.57099 | -86.05155 | 522 ft | 4 kts | 38° |
| 2026-04-26 15:06 | 33.57121 | -86.05137 | 522 ft | 3 kts | 38° |
| 2026-04-26 15:06 | 33.57142 | -86.05119 | 522 ft | 5 kts | 34° |
| 2026-04-26 15:07 | 33.57247 | -86.05030 | 523 ft | 8 kts | 35° |
| 2026-04-26 15:07 | 33.57288 | -86.04995 | 524 ft | 5 kts | 35° |
| 2026-04-26 15:07 | 33.57295 | -86.04966 | 525 ft | 4 kts | 124° |
| 2026-04-26 15:08 | 33.57284 | -86.04947 | 524 ft | 0 kts | 124° |
| 2026-04-26 15:08 | 33.57283 | -86.04945 | 524 ft | 1 kts | 124° |
| 2026-04-26 15:09 | 33.57273 | -86.04928 | 524 ft | 0 kts | 125° |
| 2026-04-26 15:09 | 33.57262 | -86.04909 | 524 ft | 6 kts | 126° |
| 2026-04-26 15:09 | 33.57224 | -86.04890 | 524 ft | 5 kts | 204° |
| 2026-04-26 15:09 | 33.57061 | -86.05026 | 522 ft | 54 kts | 215° |
| 2026-04-26 15:10 | 33.56691 | -86.05335 | 649 ft | 61 kts | 214° |
| 2026-04-26 15:10 | 33.56566 | -86.05437 | 679 ft | 66 kts | 215° |
| 2026-04-26 15:10 | 33.55826 | -86.05949 | 915 ft | 77 kts | 208° |
| 2026-04-26 15:10 | 33.55299 | -86.06310 | 1012 ft | 90 kts | 209° |
| 2026-04-26 15:11 | 33.54706 | -86.06729 | 1116 ft | 103 kts | 210° |
| 2026-04-26 15:11 | 33.54009 | -86.07201 | 1207 ft | 112 kts | 210° |
| 2026-04-26 15:11 | 33.53238 | -86.07610 | 1308 ft | 118 kts | 193° |
| 2026-04-26 15:11 | 33.52400 | -86.07800 | 1442 ft | 119 kts | 188° |
| 2026-04-26 15:12 | 33.51593 | -86.07647 | 1559 ft | 118 kts | 161° |
| 2026-04-26 15:12 | 33.50803 | -86.07310 | 1687 ft | 117 kts | 159° |
| 2026-04-26 15:12 | 33.50015 | -86.07020 | 1812 ft | 116 kts | 168° |
| 2026-04-26 15:12 | 33.49459 | -86.06934 | 1899 ft | 116 kts | 176° |
| 2026-04-26 15:13 | 33.48340 | -86.06963 | 2072 ft | 115 kts | 185° |
| 2026-04-26 15:13 | 33.47510 | -86.07073 | 2200 ft | 115 kts | 187° |
| 2026-04-26 15:13 | 33.46965 | -86.07165 | 2286 ft | 115 kts | 187° |
| 2026-04-26 15:13 | 33.45850 | -86.07372 | 2463 ft | 113 kts | 188° |
| 2026-04-26 15:14 | 33.45016 | -86.07533 | 2596 ft | 112 kts | 188° |
| 2026-04-26 15:14 | 33.44191 | -86.07697 | 2729 ft | 112 kts | 188° |
| 2026-04-26 15:14 | 33.43642 | -86.07806 | 2818 ft | 112 kts | 188° |
| 2026-04-26 15:14 | 33.42562 | -86.08023 | 2994 ft | 111 kts | 188° |
| 2026-04-26 15:15 | 33.41765 | -86.08182 | 3124 ft | 110 kts | 188° |
| 2026-04-26 15:15 | 33.40950 | -86.08346 | 3259 ft | 110 kts | 188° |
| 2026-04-26 15:15 | 33.40142 | -86.08508 | 3392 ft | 109 kts | 188° |
| 2026-04-26 15:15 | 33.39357 | -86.08665 | 3523 ft | 109 kts | 188° |
| 2026-04-26 15:16 | 33.38561 | -86.08826 | 3655 ft | 109 kts | 189° |
| 2026-04-26 15:16 | 33.37755 | -86.08988 | 3790 ft | 108 kts | 189° |
| 2026-04-26 15:16 | 33.36957 | -86.09148 | 3924 ft | 108 kts | 189° |
| 2026-04-26 15:16 | 33.36200 | -86.09299 | 4026 ft | 110 kts | 189° |
| 2026-04-26 15:17 | 33.35339 | -86.09473 | 4011 ft | 121 kts | 189° |
| 2026-04-26 15:17 | 33.35048 | -86.09531 | 4010 ft | 123 kts | 189° |
| 2026-04-26 15:17 | 33.33564 | -86.09831 | 4006 ft | 131 kts | 189° |
| 2026-04-26 15:17 | 33.32576 | -86.10029 | 4006 ft | 134 kts | 189° |
| 2026-04-26 15:18 | 33.31934 | -86.10159 | 4005 ft | 136 kts | 189° |
| 2026-04-26 15:18 | 33.30596 | -86.10429 | 4003 ft | 130 kts | 190° |
| 2026-04-26 15:18 | 33.29705 | -86.10608 | 4003 ft | 128 kts | 190° |
| 2026-04-26 15:18 | 33.28788 | -86.10792 | 4003 ft | 126 kts | 190° |
| 2026-04-26 15:19 | 33.28204 | -86.10908 | 4004 ft | 126 kts | 190° |
| 2026-04-26 15:19 | 33.27017 | -86.11146 | 4004 ft | 125 kts | 190° |
| 2026-04-26 15:19 | 33.26112 | -86.11328 | 4004 ft | 125 kts | 190° |
| 2026-04-26 15:19 | 33.25227 | -86.11506 | 4004 ft | 125 kts | 190° |
| 2026-04-26 15:20 | 33.24329 | -86.11685 | 4004 ft | 125 kts | 190° |
| 2026-04-26 15:20 | 33.23445 | -86.11861 | 4005 ft | 124 kts | 190° |
| 2026-04-26 15:20 | 33.22552 | -86.12041 | 4004 ft | 125 kts | 190° |
| 2026-04-26 15:20 | 33.21643 | -86.12222 | 4004 ft | 124 kts | 190° |
| 2026-04-26 15:21 | 33.21035 | -86.12344 | 4004 ft | 124 kts | 190° |
| 2026-04-26 15:21 | 33.19805 | -86.12590 | 4004 ft | 124 kts | 190° |
| 2026-04-26 15:21 | 33.18895 | -86.12772 | 4004 ft | 124 kts | 190° |
| 2026-04-26 15:21 | 33.17986 | -86.12955 | 4004 ft | 124 kts | 190° |
| 2026-04-26 15:22 | 33.17070 | -86.13137 | 4004 ft | 124 kts | 190° |
| 2026-04-26 15:22 | 33.16141 | -86.13319 | 4004 ft | 124 kts | 190° |
| 2026-04-26 15:22 | 33.15218 | -86.13506 | 4005 ft | 124 kts | 190° |
| 2026-04-26 15:22 | 33.14275 | -86.13696 | 4004 ft | 124 kts | 190° |
| 2026-04-26 15:23 | 33.13352 | -86.13879 | 4004 ft | 124 kts | 190° |
| 2026-04-26 15:23 | 33.12425 | -86.14065 | 4004 ft | 125 kts | 190° |
| 2026-04-26 15:23 | 33.11804 | -86.14189 | 4005 ft | 125 kts | 191° |
| 2026-04-26 15:23 | 33.10571 | -86.14436 | 4004 ft | 125 kts | 191° |
| 2026-04-26 15:24 | 33.09664 | -86.14615 | 4004 ft | 125 kts | 190° |
| 2026-04-26 15:24 | 33.08775 | -86.14790 | 4003 ft | 125 kts | 190° |
| 2026-04-26 15:24 | 33.07858 | -86.14970 | 4002 ft | 125 kts | 190° |
| 2026-04-26 15:24 | 33.06985 | -86.15139 | 4003 ft | 125 kts | 190° |
| 2026-04-26 15:25 | 33.06099 | -86.15311 | 4001 ft | 125 kts | 190° |
| 2026-04-26 15:25 | 33.05511 | -86.15427 | 4001 ft | 125 kts | 190° |
| 2026-04-26 15:25 | 33.04339 | -86.15658 | 4001 ft | 125 kts | 191° |
| 2026-04-26 15:25 | 33.03468 | -86.15829 | 4000 ft | 125 kts | 191° |
| 2026-04-26 15:26 | 33.02880 | -86.15946 | 4000 ft | 125 kts | 191° |
| 2026-04-26 15:26 | 33.01715 | -86.16176 | 4001 ft | 125 kts | 191° |
| 2026-04-26 15:26 | 33.01127 | -86.16292 | 3998 ft | 125 kts | 191° |
| 2026-04-26 15:26 | 32.99984 | -86.16518 | 3998 ft | 125 kts | 191° |
| 2026-04-26 15:27 | 32.99110 | -86.16694 | 3997 ft | 125 kts | 191° |
| 2026-04-26 15:27 | 32.98220 | -86.16870 | 3997 ft | 125 kts | 191° |
| 2026-04-26 15:27 | 32.97645 | -86.16984 | 3997 ft | 125 kts | 191° |
| 2026-04-26 15:27 | 32.96477 | -86.17215 | 3996 ft | 125 kts | 191° |
| 2026-04-26 15:28 | 32.95600 | -86.17389 | 3996 ft | 125 kts | 191° |
| 2026-04-26 15:28 | 32.95021 | -86.17503 | 3995 ft | 125 kts | 191° |
| 2026-04-26 15:28 | 32.93868 | -86.17732 | 3995 ft | 125 kts | 191° |
| 2026-04-26 15:28 | 32.92998 | -86.17905 | 3996 ft | 125 kts | 191° |
| 2026-04-26 15:29 | 32.92136 | -86.18076 | 3996 ft | 125 kts | 191° |
| 2026-04-26 15:29 | 32.91557 | -86.18189 | 3995 ft | 125 kts | 191° |
| 2026-04-26 15:29 | 32.89538 | -86.18589 | 3995 ft | 125 kts | 191° |
| 2026-04-26 15:30 | 32.87804 | -86.18932 | 3994 ft | 124 kts | 191° |
| 2026-04-26 15:30 | 32.86955 | -86.19100 | 3994 ft | 124 kts | 191° |
| 2026-04-26 15:30 | 32.86380 | -86.19214 | 3994 ft | 124 kts | 191° |
| 2026-04-26 15:31 | 32.85246 | -86.19438 | 3994 ft | 124 kts | 191° |
| 2026-04-26 15:31 | 32.83541 | -86.19776 | 3994 ft | 124 kts | 191° |
| 2026-04-26 15:31 | 32.82970 | -86.19889 | 3994 ft | 124 kts | 191° |
| 2026-04-26 15:32 | 32.81556 | -86.20168 | 3994 ft | 125 kts | 191° |
| 2026-04-26 15:32 | 32.80118 | -86.20454 | 3994 ft | 125 kts | 191° |
| 2026-04-26 15:32 | 32.79265 | -86.20622 | 3994 ft | 125 kts | 191° |
| 2026-04-26 15:33 | 32.78396 | -86.20795 | 3995 ft | 125 kts | 191° |
| 2026-04-26 15:33 | 32.77544 | -86.20963 | 3995 ft | 125 kts | 191° |
| 2026-04-26 15:33 | 32.76968 | -86.21076 | 3994 ft | 125 kts | 191° |
| 2026-04-26 15:33 | 32.75815 | -86.21300 | 3995 ft | 125 kts | 191° |
| 2026-04-26 15:34 | 32.74961 | -86.21469 | 3994 ft | 125 kts | 191° |
| 2026-04-26 15:34 | 32.74385 | -86.21584 | 3994 ft | 125 kts | 192° |
| 2026-04-26 15:34 | 32.73239 | -86.21809 | 3994 ft | 125 kts | 191° |
| 2026-04-26 15:34 | 32.72383 | -86.21977 | 3994 ft | 125 kts | 192° |
| 2026-04-26 15:35 | 32.71525 | -86.22147 | 3995 ft | 125 kts | 192° |
| 2026-04-26 15:35 | 32.70658 | -86.22317 | 3996 ft | 125 kts | 192° |
| 2026-04-26 15:35 | 32.70090 | -86.22429 | 3996 ft | 126 kts | 192° |
| 2026-04-26 15:35 | 32.68934 | -86.22659 | 3994 ft | 126 kts | 192° |
| 2026-04-26 15:36 | 32.68362 | -86.22772 | 3994 ft | 125 kts | 192° |
| 2026-04-26 15:36 | 32.67208 | -86.23002 | 3994 ft | 125 kts | 192° |
| 2026-04-26 15:36 | 32.66340 | -86.23173 | 3995 ft | 126 kts | 192° |
| 2026-04-26 15:36 | 32.65423 | -86.23355 | 3994 ft | 126 kts | 192° |
| 2026-04-26 15:37 | 32.64516 | -86.23534 | 3994 ft | 126 kts | 192° |
| 2026-04-26 15:37 | 32.63633 | -86.23706 | 3995 ft | 126 kts | 192° |
| 2026-04-26 15:37 | 32.62743 | -86.23881 | 3993 ft | 126 kts | 192° |
| 2026-04-26 15:37 | 32.61839 | -86.24058 | 3995 ft | 126 kts | 192° |
| 2026-04-26 15:38 | 32.60978 | -86.24226 | 3994 ft | 126 kts | 192° |
| 2026-04-26 15:38 | 32.60096 | -86.24400 | 3994 ft | 126 kts | 192° |
| 2026-04-26 15:38 | 32.59226 | -86.24571 | 3994 ft | 126 kts | 192° |
| 2026-04-26 15:38 | 32.58368 | -86.24742 | 3994 ft | 126 kts | 192° |
| 2026-04-26 15:39 | 32.57788 | -86.24856 | 3995 ft | 126 kts | 192° |
| 2026-04-26 15:39 | 32.56634 | -86.25082 | 3994 ft | 126 kts | 192° |
| 2026-04-26 15:39 | 32.55769 | -86.25253 | 3994 ft | 126 kts | 192° |
| 2026-04-26 15:39 | 32.55487 | -86.25309 | 3995 ft | 126 kts | 192° |
| 2026-04-26 15:40 | 32.54042 | -86.25590 | 3994 ft | 126 kts | 192° |
| 2026-04-26 15:40 | 32.53464 | -86.25701 | 3994 ft | 126 kts | 192° |
| 2026-04-26 15:40 | 32.52316 | -86.25924 | 3994 ft | 126 kts | 192° |
| 2026-04-26 15:40 | 32.51452 | -86.26094 | 3994 ft | 126 kts | 192° |
| 2026-04-26 15:41 | 32.50586 | -86.26267 | 3994 ft | 126 kts | 192° |
| 2026-04-26 15:41 | 32.49719 | -86.26438 | 3994 ft | 126 kts | 192° |
| 2026-04-26 15:41 | 32.48852 | -86.26608 | 3994 ft | 126 kts | 192° |
| 2026-04-26 15:41 | 32.48274 | -86.26722 | 3994 ft | 126 kts | 192° |
| 2026-04-26 15:42 | 32.47405 | -86.26892 | 3994 ft | 126 kts | 192° |
| 2026-04-26 15:42 | 32.46251 | -86.27120 | 3994 ft | 126 kts | 192° |
| 2026-04-26 15:42 | 32.45679 | -86.27233 | 3995 ft | 126 kts | 192° |
| 2026-04-26 15:42 | 32.44806 | -86.27406 | 3995 ft | 126 kts | 192° |
| 2026-04-26 15:43 | 32.43656 | -86.27631 | 3995 ft | 126 kts | 192° |
| 2026-04-26 15:43 | 32.42793 | -86.27799 | 3994 ft | 126 kts | 192° |
| 2026-04-26 15:43 | 32.41348 | -86.28082 | 3995 ft | 126 kts | 192° |
| 2026-04-26 15:44 | 32.40474 | -86.28253 | 3994 ft | 127 kts | 192° |
| 2026-04-26 15:44 | 32.38737 | -86.28593 | 3994 ft | 126 kts | 192° |
| 2026-04-26 15:44 | 32.37587 | -86.28818 | 3996 ft | 127 kts | 192° |
| 2026-04-26 15:45 | 32.35842 | -86.29160 | 3994 ft | 127 kts | 192° |
| 2026-04-26 15:45 | 32.34980 | -86.29327 | 3995 ft | 127 kts | 192° |
| 2026-04-26 15:46 | 32.33238 | -86.29668 | 3995 ft | 126 kts | 192° |
| 2026-04-26 15:46 | 32.32373 | -86.29839 | 3995 ft | 126 kts | 192° |
| 2026-04-26 15:46 | 32.31792 | -86.29953 | 3996 ft | 126 kts | 192° |
| 2026-04-26 15:46 | 32.31212 | -86.30065 | 3995 ft | 127 kts | 192° |
| 2026-04-26 15:47 | 32.30054 | -86.30292 | 3996 ft | 127 kts | 192° |
| 2026-04-26 15:47 | 32.28315 | -86.30632 | 3995 ft | 126 kts | 192° |
| 2026-04-26 15:47 | 32.27156 | -86.30856 | 3995 ft | 127 kts | 192° |
| 2026-04-26 15:48 | 32.26582 | -86.30968 | 3994 ft | 126 kts | 192° |
| 2026-04-26 15:48 | 32.25714 | -86.31139 | 3995 ft | 126 kts | 193° |
| 2026-04-26 15:48 | 32.24853 | -86.31306 | 3994 ft | 126 kts | 192° |
| 2026-04-26 15:48 | 32.23696 | -86.31534 | 3995 ft | 126 kts | 192° |
| 2026-04-26 15:49 | 32.23111 | -86.31647 | 3995 ft | 127 kts | 192° |
| 2026-04-26 15:49 | 32.22238 | -86.31792 | 3995 ft | 127 kts | 191° |
| 2026-04-26 15:49 | 32.21365 | -86.31986 | 3995 ft | 126 kts | 196° |
| 2026-04-26 15:49 | 32.20235 | -86.32349 | 3995 ft | 126 kts | 200° |
| 2026-04-26 15:50 | 32.19391 | -86.32678 | 3995 ft | 125 kts | 202° |
| 2026-04-26 15:50 | 32.18558 | -86.33033 | 3995 ft | 125 kts | 204° |
| 2026-04-26 15:50 | 32.18003 | -86.33285 | 3995 ft | 125 kts | 205° |
| 2026-04-26 15:50 | 32.17182 | -86.33670 | 3995 ft | 125 kts | 206° |
| 2026-04-26 15:51 | 32.16355 | -86.34073 | 3994 ft | 125 kts | 206° |
| 2026-04-26 15:51 | 32.15270 | -86.34614 | 3995 ft | 124 kts | 207° |
| 2026-04-26 15:51 | 32.14736 | -86.34884 | 3995 ft | 124 kts | 207° |
| 2026-04-26 15:51 | 32.13678 | -86.35422 | 3995 ft | 124 kts | 207° |
| 2026-04-26 15:52 | 32.13145 | -86.35696 | 3994 ft | 124 kts | 207° |
| 2026-04-26 15:52 | 32.12349 | -86.36109 | 3996 ft | 124 kts | 207° |
| 2026-04-26 15:52 | 32.11293 | -86.36656 | 3995 ft | 125 kts | 207° |
| 2026-04-26 15:52 | 32.10762 | -86.36932 | 3995 ft | 125 kts | 207° |
| 2026-04-26 15:53 | 32.09970 | -86.37341 | 3995 ft | 125 kts | 207° |
| 2026-04-26 15:53 | 32.08917 | -86.37887 | 3996 ft | 124 kts | 207° |
| 2026-04-26 15:53 | 32.08383 | -86.38165 | 3995 ft | 125 kts | 207° |
| 2026-04-26 15:53 | 32.07583 | -86.38580 | 3995 ft | 125 kts | 207° |
| 2026-04-26 15:54 | 32.06788 | -86.38997 | 3995 ft | 124 kts | 208° |
| 2026-04-26 15:54 | 32.06000 | -86.39407 | 3995 ft | 125 kts | 207° |
| 2026-04-26 15:54 | 32.05207 | -86.39820 | 3996 ft | 125 kts | 207° |
| 2026-04-26 15:54 | 32.04409 | -86.40236 | 3995 ft | 125 kts | 207° |
| 2026-04-26 15:55 | 32.03341 | -86.40793 | 3996 ft | 124 kts | 208° |
| 2026-04-26 15:55 | 32.02808 | -86.41071 | 3995 ft | 124 kts | 207° |
| 2026-04-26 15:55 | 32.02009 | -86.41487 | 3995 ft | 125 kts | 207° |
| 2026-04-26 15:55 | 32.01214 | -86.41900 | 3996 ft | 125 kts | 208° |
| 2026-04-26 15:56 | 32.00148 | -86.42451 | 3995 ft | 125 kts | 207° |
| 2026-04-26 15:56 | 31.99352 | -86.42865 | 3995 ft | 125 kts | 208° |
| 2026-04-26 15:56 | 31.98542 | -86.43285 | 3997 ft | 125 kts | 208° |
| 2026-04-26 15:56 | 31.97748 | -86.43698 | 3996 ft | 125 kts | 208° |
| 2026-04-26 15:57 | 31.97204 | -86.43981 | 3995 ft | 125 kts | 208° |
| 2026-04-26 15:57 | 31.96129 | -86.44538 | 3995 ft | 125 kts | 208° |
| 2026-04-26 15:57 | 31.95595 | -86.44817 | 3996 ft | 125 kts | 208° |
| 2026-04-26 15:57 | 31.95054 | -86.45097 | 3994 ft | 125 kts | 208° |
| 2026-04-26 15:58 | 31.93988 | -86.45651 | 3996 ft | 125 kts | 208° |
| 2026-04-26 15:58 | 31.92930 | -86.46198 | 3995 ft | 125 kts | 208° |
| 2026-04-26 15:58 | 31.92397 | -86.46476 | 3996 ft | 125 kts | 208° |
| 2026-04-26 15:58 | 31.91307 | -86.47043 | 3995 ft | 125 kts | 208° |
| 2026-04-26 15:59 | 31.90773 | -86.47319 | 3995 ft | 125 kts | 208° |
| 2026-04-26 15:59 | 31.89957 | -86.47743 | 3996 ft | 125 kts | 208° |
| 2026-04-26 15:59 | 31.88865 | -86.48310 | 3993 ft | 125 kts | 208° |
| 2026-04-26 15:59 | 31.88056 | -86.48730 | 3994 ft | 125 kts | 208° |
| 2026-04-26 16:00 | 31.87257 | -86.49146 | 3992 ft | 125 kts | 208° |
| 2026-04-26 16:00 | 31.86442 | -86.49567 | 3993 ft | 124 kts | 208° |
| 2026-04-26 16:00 | 31.85643 | -86.49983 | 3995 ft | 124 kts | 208° |
| 2026-04-26 16:00 | 31.84847 | -86.50395 | 3993 ft | 124 kts | 208° |
| 2026-04-26 16:01 | 31.84058 | -86.50802 | 3993 ft | 124 kts | 208° |
| 2026-04-26 16:01 | 31.83274 | -86.51207 | 4001 ft | 124 kts | 208° |
| 2026-04-26 16:01 | 31.82476 | -86.51620 | 4002 ft | 124 kts | 208° |
| 2026-04-26 16:01 | 31.81956 | -86.51890 | 4002 ft | 124 kts | 208° |
| 2026-04-26 16:02 | 31.80901 | -86.52433 | 4002 ft | 124 kts | 208° |
| 2026-04-26 16:02 | 31.80361 | -86.52714 | 4001 ft | 125 kts | 208° |
| 2026-04-26 16:02 | 31.79571 | -86.53121 | 4001 ft | 125 kts | 208° |
| 2026-04-26 16:02 | 31.79040 | -86.53395 | 3999 ft | 125 kts | 208° |
| 2026-04-26 16:03 | 31.77971 | -86.53948 | 4000 ft | 125 kts | 208° |
| 2026-04-26 16:03 | 31.77180 | -86.54359 | 3999 ft | 126 kts | 208° |
| 2026-04-26 16:03 | 31.76383 | -86.54770 | 3998 ft | 125 kts | 208° |
| 2026-04-26 16:03 | 31.75321 | -86.55320 | 3998 ft | 125 kts | 208° |
| 2026-04-26 16:04 | 31.74522 | -86.55737 | 3996 ft | 125 kts | 208° |
| 2026-04-26 16:04 | 31.73726 | -86.56149 | 3997 ft | 125 kts | 208° |
| 2026-04-26 16:04 | 31.73195 | -86.56424 | 3997 ft | 125 kts | 208° |
| 2026-04-26 16:04 | 31.72135 | -86.56972 | 3995 ft | 125 kts | 207° |
| 2026-04-26 16:05 | 31.71604 | -86.57247 | 3997 ft | 125 kts | 207° |
| 2026-04-26 16:05 | 31.70812 | -86.57653 | 3995 ft | 125 kts | 207° |
| 2026-04-26 16:05 | 31.70008 | -86.58067 | 3994 ft | 125 kts | 207° |
| 2026-04-26 16:05 | 31.69208 | -86.58477 | 3995 ft | 125 kts | 207° |
| 2026-04-26 16:06 | 31.68417 | -86.58884 | 3994 ft | 125 kts | 207° |
| 2026-04-26 16:06 | 31.67613 | -86.59300 | 3994 ft | 125 kts | 207° |
| 2026-04-26 16:06 | 31.66822 | -86.59707 | 3993 ft | 125 kts | 207° |
| 2026-04-26 16:06 | 31.66022 | -86.60118 | 3993 ft | 125 kts | 207° |
| 2026-04-26 16:07 | 31.64953 | -86.60668 | 3994 ft | 125 kts | 207° |
| 2026-04-26 16:07 | 31.64423 | -86.60943 | 3994 ft | 125 kts | 207° |
| 2026-04-26 16:07 | 31.63626 | -86.61356 | 3994 ft | 125 kts | 207° |
| 2026-04-26 16:07 | 31.62557 | -86.61905 | 3993 ft | 125 kts | 207° |
| 2026-04-26 16:08 | 31.62030 | -86.62177 | 3994 ft | 125 kts | 208° |
| 2026-04-26 16:08 | 31.61235 | -86.62588 | 3994 ft | 125 kts | 207° |
| 2026-04-26 16:08 | 31.60432 | -86.63004 | 3994 ft | 125 kts | 208° |
| 2026-04-26 16:08 | 31.59368 | -86.63554 | 3993 ft | 125 kts | 207° |
| 2026-04-26 16:09 | 31.58571 | -86.63960 | 3995 ft | 126 kts | 207° |
| 2026-04-26 16:09 | 31.58042 | -86.64233 | 3994 ft | 125 kts | 207° |
| 2026-04-26 16:09 | 31.56973 | -86.64782 | 3994 ft | 125 kts | 207° |
| 2026-04-26 16:09 | 31.56177 | -86.65196 | 3994 ft | 125 kts | 208° |
| 2026-04-26 16:10 | 31.55374 | -86.65620 | 3995 ft | 126 kts | 205° |
| 2026-04-26 16:10 | 31.54824 | -86.65848 | 3995 ft | 126 kts | 200° |
| 2026-04-26 16:10 | 31.53686 | -86.66183 | 3995 ft | 127 kts | 194° |
| 2026-04-26 16:10 | 31.52816 | -86.66354 | 3995 ft | 127 kts | 191° |
| 2026-04-26 16:11 | 31.51928 | -86.66479 | 3995 ft | 127 kts | 188° |
| 2026-04-26 16:11 | 31.51350 | -86.66543 | 3996 ft | 127 kts | 187° |
| 2026-04-26 16:11 | 31.50458 | -86.66619 | 3995 ft | 127 kts | 186° |
| 2026-04-26 16:11 | 31.49285 | -86.66692 | 3995 ft | 128 kts | 185° |
| 2026-04-26 16:12 | 31.48686 | -86.66721 | 3996 ft | 128 kts | 184° |
| 2026-04-26 16:12 | 31.47499 | -86.66766 | 3995 ft | 128 kts | 184° |
| 2026-04-26 16:12 | 31.46021 | -86.66809 | 3996 ft | 128 kts | 184° |
| 2026-04-26 16:13 | 31.44831 | -86.66839 | 3995 ft | 128 kts | 183° |
| 2026-04-26 16:13 | 31.44234 | -86.66853 | 3996 ft | 129 kts | 184° |
| 2026-04-26 16:13 | 31.43043 | -86.66879 | 3995 ft | 128 kts | 183° |
| 2026-04-26 16:13 | 31.42148 | -86.66898 | 3995 ft | 128 kts | 183° |
| 2026-04-26 16:14 | 31.41557 | -86.66911 | 3996 ft | 128 kts | 183° |
| 2026-04-26 16:14 | 31.40372 | -86.66934 | 3996 ft | 128 kts | 183° |
| 2026-04-26 16:14 | 31.38892 | -86.66964 | 3995 ft | 128 kts | 183° |
| 2026-04-26 16:15 | 31.38001 | -86.66982 | 3995 ft | 128 kts | 183° |
| 2026-04-26 16:15 | 31.37105 | -86.67000 | 3995 ft | 128 kts | 183° |
| 2026-04-26 16:15 | 31.35911 | -86.67022 | 3995 ft | 128 kts | 183° |
| 2026-04-26 16:16 | 31.34128 | -86.67058 | 3996 ft | 128 kts | 183° |
| 2026-04-26 16:16 | 31.33528 | -86.67069 | 3995 ft | 128 kts | 183° |
| 2026-04-26 16:16 | 31.32609 | -86.67086 | 3996 ft | 128 kts | 183° |
| 2026-04-26 16:16 | 31.31677 | -86.67105 | 3996 ft | 128 kts | 183° |
| 2026-04-26 16:17 | 31.30740 | -86.67124 | 3996 ft | 128 kts | 183° |
| 2026-04-26 16:17 | 31.29803 | -86.67141 | 3996 ft | 128 kts | 183° |
| 2026-04-26 16:17 | 31.28872 | -86.67158 | 3996 ft | 128 kts | 183° |
| 2026-04-26 16:17 | 31.27645 | -86.67178 | 3995 ft | 129 kts | 183° |
| 2026-04-26 16:18 | 31.27045 | -86.67190 | 3997 ft | 129 kts | 183° |
| 2026-04-26 16:18 | 31.25209 | -86.67226 | 3995 ft | 128 kts | 183° |
| 2026-04-26 16:19 | 31.23375 | -86.67265 | 3995 ft | 129 kts | 183° |
| 2026-04-26 16:19 | 31.22449 | -86.67281 | 3995 ft | 128 kts | 183° |
| 2026-04-26 16:19 | 31.20631 | -86.67313 | 3996 ft | 128 kts | 183° |
| 2026-04-26 16:20 | 31.19446 | -86.67335 | 3999 ft | 128 kts | 183° |
| 2026-04-26 16:20 | 31.17641 | -86.67371 | 3997 ft | 128 kts | 183° |
| 2026-04-26 16:20 | 31.16756 | -86.67387 | 3999 ft | 128 kts | 183° |
| 2026-04-26 16:21 | 31.16152 | -86.67398 | 3999 ft | 128 kts | 183° |
| 2026-04-26 16:21 | 31.15270 | -86.67414 | 4000 ft | 128 kts | 183° |
| 2026-04-26 16:21 | 31.14370 | -86.67432 | 4003 ft | 128 kts | 183° |
| 2026-04-26 16:21 | 31.13469 | -86.67449 | 4003 ft | 128 kts | 183° |
| 2026-04-26 16:22 | 31.12574 | -86.67466 | 4004 ft | 128 kts | 183° |
| 2026-04-26 16:22 | 31.11674 | -86.67483 | 4005 ft | 128 kts | 183° |
| 2026-04-26 16:22 | 31.10760 | -86.67499 | 4006 ft | 128 kts | 184° |
| 2026-04-26 16:22 | 31.09849 | -86.67517 | 4007 ft | 128 kts | 184° |
| 2026-04-26 16:23 | 31.08936 | -86.67535 | 4008 ft | 128 kts | 183° |
| 2026-04-26 16:23 | 31.08028 | -86.67553 | 4010 ft | 128 kts | 184° |
| 2026-04-26 16:23 | 31.07106 | -86.67571 | 4010 ft | 128 kts | 183° |
| 2026-04-26 16:23 | 31.06195 | -86.67588 | 4011 ft | 129 kts | 183° |
| 2026-04-26 16:24 | 31.05285 | -86.67606 | 4012 ft | 129 kts | 183° |
| 2026-04-26 16:24 | 31.04064 | -86.67628 | 4014 ft | 129 kts | 183° |
| 2026-04-26 16:24 | 31.03451 | -86.67640 | 4014 ft | 129 kts | 183° |
| 2026-04-26 16:24 | 31.02533 | -86.67657 | 4015 ft | 129 kts | 184° |
| 2026-04-26 16:25 | 31.01630 | -86.67674 | 4014 ft | 129 kts | 184° |
| 2026-04-26 16:25 | 31.00429 | -86.67697 | 4015 ft | 129 kts | 183° |
| 2026-04-26 16:25 | 30.99535 | -86.67714 | 4015 ft | 129 kts | 183° |
| 2026-04-26 16:25 | 30.98623 | -86.67731 | 4015 ft | 129 kts | 183° |
| 2026-04-26 16:26 | 30.98024 | -86.67743 | 4015 ft | 129 kts | 183° |
| 2026-04-26 16:26 | 30.97127 | -86.67760 | 4014 ft | 129 kts | 184° |
| 2026-04-26 16:26 | 30.96227 | -86.67777 | 4015 ft | 129 kts | 184° |
| 2026-04-26 16:26 | 30.95316 | -86.67794 | 4015 ft | 130 kts | 184° |
| 2026-04-26 16:27 | 30.94115 | -86.67815 | 4015 ft | 130 kts | 184° |
| 2026-04-26 16:27 | 30.93513 | -86.67827 | 4015 ft | 130 kts | 184° |
| 2026-04-26 16:27 | 30.92605 | -86.67846 | 4014 ft | 130 kts | 184° |
| 2026-04-26 16:27 | 30.91408 | -86.67868 | 4015 ft | 130 kts | 184° |
| 2026-04-26 16:28 | 30.90809 | -86.67879 | 4015 ft | 130 kts | 184° |
| 2026-04-26 16:28 | 30.89898 | -86.67898 | 4015 ft | 130 kts | 184° |
| 2026-04-26 16:28 | 30.88996 | -86.67915 | 4013 ft | 130 kts | 184° |
| 2026-04-26 16:28 | 30.88096 | -86.67931 | 4013 ft | 129 kts | 184° |
| 2026-04-26 16:29 | 30.87194 | -86.67948 | 4013 ft | 129 kts | 184° |
| 2026-04-26 16:29 | 30.85998 | -86.67971 | 4013 ft | 129 kts | 184° |
| 2026-04-26 16:29 | 30.85404 | -86.67982 | 4013 ft | 129 kts | 184° |
| 2026-04-26 16:29 | 30.84198 | -86.68005 | 4013 ft | 129 kts | 184° |
| 2026-04-26 16:30 | 30.83305 | -86.67977 | 4013 ft | 130 kts | 174° |
| 2026-04-26 16:30 | 30.82704 | -86.67913 | 4012 ft | 129 kts | 181° |
| 2026-04-26 16:30 | 30.81523 | -86.68080 | 4014 ft | 127 kts | 200° |
| 2026-04-26 16:30 | 30.80978 | -86.68310 | 4012 ft | 126 kts | 207° |
| 2026-04-26 16:31 | 30.80212 | -86.68781 | 4013 ft | 124 kts | 216° |
| 2026-04-26 16:31 | 30.79481 | -86.69331 | 4013 ft | 124 kts | 218° |
| 2026-04-26 16:31 | 30.78855 | -86.69990 | 4007 ft | 119 kts | 247° |
| 2026-04-26 16:31 | 30.78594 | -86.71195 | 4012 ft | 115 kts | 265° |
| 2026-04-26 16:32 | 30.78491 | -86.71812 | 4014 ft | 116 kts | 262° |
| 2026-04-26 16:32 | 30.78261 | -86.72713 | 4013 ft | 117 kts | 255° |
| 2026-04-26 16:32 | 30.77951 | -86.73601 | 4013 ft | 118 kts | 251° |
| 2026-04-26 16:32 | 30.77607 | -86.74463 | 4013 ft | 118 kts | 248° |
| 2026-04-26 16:33 | 30.77211 | -86.75323 | 4013 ft | 119 kts | 245° |
| 2026-04-26 16:33 | 30.76773 | -86.76152 | 4013 ft | 119 kts | 242° |
| 2026-04-26 16:33 | 30.76298 | -86.76954 | 4013 ft | 120 kts | 239° |
| 2026-04-26 16:33 | 30.75621 | -86.78001 | 4013 ft | 120 kts | 237° |
| 2026-04-26 16:34 | 30.75269 | -86.78522 | 4013 ft | 120 kts | 237° |
| 2026-04-26 16:34 | 30.74739 | -86.79298 | 4013 ft | 121 kts | 236° |
| 2026-04-26 16:34 | 30.74211 | -86.80064 | 4013 ft | 121 kts | 236° |
| 2026-04-26 16:34 | 30.73675 | -86.80839 | 4013 ft | 121 kts | 236° |
| 2026-04-26 16:35 | 30.73146 | -86.81602 | 4013 ft | 121 kts | 236° |
| 2026-04-26 16:35 | 30.72615 | -86.82368 | 4013 ft | 121 kts | 236° |
| 2026-04-26 16:35 | 30.72078 | -86.83143 | 4013 ft | 121 kts | 236° |
| 2026-04-26 16:35 | 30.71364 | -86.84173 | 4012 ft | 121 kts | 236° |
| 2026-04-26 16:36 | 30.71017 | -86.84672 | 4012 ft | 121 kts | 236° |
| 2026-04-26 16:36 | 30.70485 | -86.85438 | 4011 ft | 121 kts | 236° |
| 2026-04-26 16:36 | 30.69950 | -86.86208 | 4011 ft | 121 kts | 236° |
| 2026-04-26 16:36 | 30.69421 | -86.86970 | 4010 ft | 121 kts | 236° |
| 2026-04-26 16:37 | 30.68877 | -86.87753 | 4010 ft | 121 kts | 236° |
| 2026-04-26 16:37 | 30.68349 | -86.88514 | 4009 ft | 121 kts | 236° |
| 2026-04-26 16:37 | 30.67811 | -86.89286 | 4009 ft | 121 kts | 236° |
| 2026-04-26 16:37 | 30.67275 | -86.90057 | 4008 ft | 121 kts | 236° |
| 2026-04-26 16:38 | 30.66518 | -86.91149 | 3872 ft | 134 kts | 235° |
| 2026-04-26 16:38 | 30.66123 | -86.91718 | 3792 ft | 138 kts | 234° |
| 2026-04-26 16:38 | 30.65486 | -86.92634 | 3664 ft | 142 kts | 234° |
| 2026-04-26 16:38 | 30.64848 | -86.93549 | 3537 ft | 143 kts | 234° |
| 2026-04-26 16:39 | 30.64212 | -86.94463 | 3411 ft | 144 kts | 234° |
| 2026-04-26 16:39 | 30.63566 | -86.95392 | 3281 ft | 140 kts | 234° |
| 2026-04-26 16:39 | 30.62972 | -86.96247 | 3142 ft | 126 kts | 234° |
| 2026-04-26 16:39 | 30.62253 | -86.97278 | 2962 ft | 115 kts | 235° |
| 2026-04-26 16:40 | 30.61735 | -86.98023 | 2832 ft | 116 kts | 235° |
| 2026-04-26 16:40 | 30.61381 | -86.98531 | 2747 ft | 118 kts | 235° |
| 2026-04-26 16:40 | 30.60843 | -86.99307 | 2618 ft | 120 kts | 234° |
| 2026-04-26 16:40 | 30.60319 | -87.00060 | 2508 ft | 119 kts | 234° |
| 2026-04-26 16:41 | 30.59778 | -87.00813 | 2508 ft | 123 kts | 235° |
| 2026-04-26 16:41 | 30.59259 | -87.01565 | 2518 ft | 114 kts | 235° |
| 2026-04-26 16:41 | 30.58731 | -87.02326 | 2533 ft | 123 kts | 234° |
| 2026-04-26 16:41 | 30.58169 | -87.03133 | 2483 ft | 129 kts | 234° |
| 2026-04-26 16:42 | 30.57607 | -87.03943 | 2346 ft | 125 kts | 234° |
| 2026-04-26 16:42 | 30.57051 | -87.04743 | 2214 ft | 121 kts | 234° |
| 2026-04-26 16:42 | 30.56517 | -87.05511 | 2086 ft | 120 kts | 234° |
| 2026-04-26 16:42 | 30.55994 | -87.06259 | 2020 ft | 116 kts | 234° |
| 2026-04-26 16:43 | 30.55457 | -87.07027 | 2032 ft | 116 kts | 234° |
| 2026-04-26 16:43 | 30.54942 | -87.07764 | 2033 ft | 117 kts | 234° |
| 2026-04-26 16:43 | 30.54428 | -87.08498 | 2032 ft | 115 kts | 234° |
| 2026-04-26 16:43 | 30.53922 | -87.09221 | 2032 ft | 112 kts | 235° |
| 2026-04-26 16:44 | 30.53389 | -87.09927 | 2030 ft | 113 kts | 220° |
| 2026-04-26 16:44 | 30.52689 | -87.10375 | 2033 ft | 113 kts | 209° |
| 2026-04-26 16:44 | 30.51972 | -87.10770 | 2035 ft | 112 kts | 208° |
| 2026-04-26 16:44 | 30.51259 | -87.11161 | 1900 ft | 111 kts | 208° |
| 2026-04-26 16:45 | 30.50335 | -87.11662 | 1688 ft | 104 kts | 208° |
| 2026-04-26 16:45 | 30.49634 | -87.11921 | 1529 ft | 102 kts | 194° |
| 2026-04-26 16:45 | 30.49197 | -87.12103 | 1439 ft | 94 kts | 212° |
| 2026-04-26 16:45 | 30.48694 | -87.12536 | 1286 ft | 91 kts | 229° |
| 2026-04-26 16:46 | 30.48306 | -87.13126 | 1101 ft | 94 kts | 244° |
| 2026-04-26 16:46 | 30.48090 | -87.13850 | 907 ft | 96 kts | 261° |
| 2026-04-26 16:46 | 30.47948 | -87.14577 | 794 ft | 84 kts | 262° |
| 2026-04-26 16:46 | 30.47860 | -87.15245 | 688 ft | 82 kts | 265° |
| 2026-04-26 16:47 | 30.47771 | -87.15872 | 601 ft | 71 kts | 267° |
| 2026-04-26 16:47 | 30.47698 | -87.16451 | 431 ft | 72 kts | 265° |
| 2026-04-26 16:47 | 30.47605 | -87.17014 | 254 ft | 67 kts | 263° |
| 2026-04-26 16:47 | 30.47516 | -87.17498 | 129 ft | 55 kts | 264° |
| 2026-04-26 16:48 | 30.47452 | -87.17858 | 105 ft | 36 kts | 258° |
| 2026-04-26 16:48 | 30.47407 | -87.18106 | 103 ft | 27 kts | 257° |
| 2026-04-26 16:48 | 30.47372 | -87.18291 | 100 ft | 19 kts | 256° |
| 2026-04-26 16:48 | 30.47351 | -87.18402 | 98 ft | 11 kts | 258° |
| 2026-04-26 16:49 | 30.47338 | -87.18474 | 96 ft | 7 kts | 249° |
| 2026-04-26 16:49 | 30.47305 | -87.18494 | 96 ft | 4 kts | 173° |
| 2026-04-26 16:49 | 30.47269 | -87.18486 | 96 ft | 7 kts | 168° |
| 2026-04-26 16:49 | 30.47181 | -87.18464 | 96 ft | 11 kts | 168° |
| 2026-04-26 16:50 | 30.47096 | -87.18442 | 97 ft | 11 kts | 167° |
| 2026-04-26 16:50 | 30.47045 | -87.18429 | 97 ft | 10 kts | 168° |
| 2026-04-26 16:50 | 30.46979 | -87.18412 | 97 ft | 7 kts | 168° |
| 2026-04-26 16:50 | 30.46950 | -87.18387 | 98 ft | 4 kts | 90° |
| 2026-04-26 16:51 | 30.46955 | -87.18362 | 98 ft | 2 kts | 75° |
| 2026-04-26 16:51 | 30.46960 | -87.18338 | 99 ft | 8 kts | 78° |
| 2026-04-26 16:51 | 30.46973 | -87.18266 | 100 ft | 7 kts | 77° |
| 2026-04-26 16:51 | 30.46979 | -87.18231 | 101 ft | 1 kts | 98° |
| 2026-04-26 16:52 | 30.46960 | -87.18211 | 101 ft | 0 kts | 167° |
| 2026-04-26 16:52 | 30.46939 | -87.18227 | 101 ft | 6 kts | 255° |
| 2026-04-26 16:52 | 30.46940 | -87.18238 | 101 ft | 1 kts | 343° |
| 2026-04-26 16:53 | 30.46954 | -87.18243 | 101 ft | 0 kts | 343° |